createdAt,value
2019-03-01T00:01:17.009Z,25.83
2019-03-01T00:03:45.302Z,28.03
2019-03-01T00:06:35.385Z,27.70
2019-03-01T00:09:11.641Z,27.73
2019-03-01T00:12:05.158Z,25.87
2019-03-01T00:14:51.105Z,26.83
2019-03-01T00:17:32.778Z,25.60
2019-03-01T00:20:20.160Z,27.50
2019-03-01T00:23:16.685Z,26.83
2019-03-01T00:26:12.816Z,26.80
2019-03-01T00:29:02.797Z,27.27
2019-03-01T00:31:43.900Z,27.37
2019-03-01T00:34:36.963Z,27.23
2019-03-01T00:37:30.291Z,28.33
2019-03-01T00:40:09.010Z,28.03
2019-03-01T00:42:56.200Z,28.33
2019-03-01T00:45:24.333Z,27.80
2019-03-01T00:47:52.512Z,28.37
2019-03-01T00:50:20.594Z,26.90
2019-03-01T00:52:48.701Z,27.83
2019-03-01T00:55:17.909Z,27.13
2019-03-01T00:57:46.013Z,26.50
2019-03-01T01:00:34.274Z,26.07
2019-03-01T01:03:02.399Z,26.50
2019-03-01T01:05:30.474Z,25.17
2019-03-01T01:07:58.693Z,25.87
2019-03-01T01:10:26.808Z,25.90
2019-03-01T01:12:54.947Z,24.47
2019-03-01T01:15:23.041Z,25.30
2019-03-01T01:17:51.153Z,26.07
2019-03-01T01:20:19.397Z,26.43
2019-03-01T01:22:47.614Z,25.97
2019-03-01T01:25:15.687Z,25.23
2019-03-01T01:27:43.948Z,24.57
2019-03-01T01:30:13.921Z,26.13
2019-03-01T01:32:42.164Z,25.30
2019-03-01T01:35:10.269Z,26.77
2019-03-01T01:37:38.331Z,26.47
2019-03-01T01:40:06.637Z,26.70
2019-03-01T01:42:34.765Z,27.83
2019-03-01T01:45:02.905Z,27.50
2019-03-01T01:47:31.368Z,26.90
2019-03-01T01:49:59.543Z,26.90
2019-03-01T01:52:27.609Z,27.20
2019-03-01T01:54:55.716Z,27.80
2019-03-01T01:57:23.890Z,27.37
2019-03-01T01:59:51.967Z,26.53
2019-03-01T02:02:20.054Z,27.40
2019-03-01T02:04:48.125Z,28.07
2019-03-01T02:07:17.294Z,27.80
2019-03-01T02:09:45.354Z,27.80
2019-03-01T02:12:13.572Z,27.00
2019-03-01T02:14:41.719Z,27.20
2019-03-01T02:17:09.831Z,27.97
2019-03-01T02:19:37.907Z,29.00
2019-03-01T02:22:06.061Z,29.00
2019-03-01T02:24:34.094Z,28.10
2019-03-01T02:27:36.175Z,27.97
2019-03-01T02:30:06.129Z,29.77
2019-03-01T02:32:41.634Z,28.57
2019-03-01T02:35:10.591Z,29.53
2019-03-01T02:37:38.659Z,30.83
2019-03-01T02:40:07.614Z,28.50
2019-03-01T02:42:35.737Z,30.90
2019-03-01T02:45:04.253Z,30.97
2019-03-01T02:47:32.340Z,30.10
2019-03-01T02:50:00.516Z,30.37
2019-03-01T02:52:28.588Z,30.80
2019-03-01T02:54:56.696Z,30.30
2019-03-01T02:57:24.854Z,30.60
2019-03-01T02:59:52.919Z,31.67
2019-03-01T03:02:20.986Z,30.83
2019-03-01T03:04:49.177Z,30.97
2019-03-01T03:07:37.918Z,30.83
2019-03-01T03:10:06.135Z,32.03
2019-03-01T03:12:34.300Z,30.47
2019-03-01T03:15:02.433Z,28.90
2019-03-01T03:17:30.590Z,30.13
2019-03-01T03:19:58.662Z,29.93
2019-03-01T03:22:26.766Z,31.10
2019-03-01T03:24:54.883Z,30.37
2019-03-01T03:27:23.023Z,29.67
2019-03-01T03:29:51.071Z,30.20
2019-03-01T03:32:19.136Z,31.10
2019-03-01T03:34:47.311Z,30.30
2019-03-01T03:37:15.430Z,31.90
2019-03-01T03:39:43.532Z,31.17
2019-03-01T03:42:11.646Z,29.60
2019-03-01T03:44:39.757Z,31.63
2019-03-01T03:47:07.891Z,31.17
2019-03-01T03:49:36.100Z,31.03
2019-03-01T03:52:04.227Z,29.70
2019-03-01T03:54:32.380Z,30.13
2019-03-01T03:57:00.524Z,32.10
2019-03-01T03:59:28.638Z,32.13
2019-03-01T04:01:56.741Z,31.97
2019-03-01T04:04:24.920Z,31.07
2019-03-01T04:06:53.126Z,31.70
2019-03-01T04:09:21.194Z,31.93
2019-03-01T04:11:49.268Z,31.93
2019-03-01T04:14:17.604Z,31.87
2019-03-01T04:16:45.824Z,31.30
2019-03-01T04:19:13.927Z,31.97
2019-03-01T04:21:42.077Z,33.50
2019-03-01T04:24:10.194Z,32.90
2019-03-01T04:26:38.351Z,33.17
2019-03-01T04:29:06.466Z,34.40
2019-03-01T04:31:34.558Z,32.17
2019-03-01T04:34:02.619Z,34.03
2019-03-01T04:36:30.725Z,33.70
2019-03-01T04:38:58.862Z,34.90
2019-03-01T04:41:26.979Z,34.63
2019-03-01T04:43:55.236Z,33.50
2019-03-01T04:46:23.326Z,33.67
2019-03-01T04:48:51.446Z,34.37
2019-03-01T04:51:19.600Z,34.73
2019-03-01T04:53:47.667Z,33.00
2019-03-01T04:56:15.777Z,34.80
2019-03-01T04:58:43.850Z,34.00
2019-03-01T05:01:12.362Z,32.97
2019-03-01T05:03:40.432Z,34.10
2019-03-01T05:06:08.493Z,33.30
2019-03-01T05:08:36.797Z,35.10
2019-03-01T05:11:05.505Z,35.47
2019-03-01T05:13:33.570Z,35.97
2019-03-01T05:16:01.674Z,34.57
2019-03-01T05:18:29.754Z,35.30
2019-03-01T05:20:57.815Z,34.63
2019-03-01T05:23:25.925Z,35.10
2019-03-01T05:25:54.004Z,34.37
2019-03-01T05:28:22.121Z,34.27
2019-03-01T05:30:50.176Z,35.47
2019-03-01T05:33:18.471Z,34.80
2019-03-01T05:35:46.547Z,35.57
2019-03-01T05:38:21.534Z,36.27
2019-03-01T05:40:44.395Z,36.70
2019-03-01T05:43:12.462Z,35.90
2019-03-01T05:45:40.516Z,34.67
2019-03-01T05:48:08.708Z,36.50
2019-03-01T05:50:36.777Z,35.60
2019-03-01T05:53:04.888Z,35.83
2019-03-01T05:55:32.981Z,36.70
2019-03-01T05:58:19.170Z,35.50
2019-03-01T06:00:47.243Z,37.10
2019-03-01T06:03:40.815Z,37.53
2019-03-01T06:06:08.887Z,37.67
2019-03-01T06:08:56.084Z,39.23
2019-03-01T06:11:32.291Z,38.60
2019-03-01T06:14:03.837Z,38.17
2019-03-01T06:17:02.814Z,39.70
2019-03-01T06:19:36.349Z,42.33
2019-03-01T06:22:38.478Z,47.07
2019-03-01T06:25:25.647Z,45.37
2019-03-01T06:28:14.035Z,46.70
2019-03-01T06:30:51.646Z,43.40
2019-03-01T06:33:27.365Z,43.87
2019-03-01T06:36:03.699Z,44.83
2019-03-01T06:39:08.575Z,46.27
2019-03-01T06:41:49.273Z,51.80
2019-03-01T06:44:36.489Z,48.53
2019-03-01T06:47:26.424Z,44.63
2019-03-01T06:50:14.128Z,44.03
2019-03-01T06:52:42.400Z,43.50
2019-03-01T06:55:12.728Z,46.23
2019-03-01T06:57:40.843Z,43.90
2019-03-01T07:00:09.400Z,45.83
2019-03-01T07:02:44.187Z,46.87
2019-03-01T07:05:12.277Z,45.17
2019-03-01T07:07:40.406Z,45.57
2019-03-01T07:10:08.587Z,46.33
2019-03-01T07:12:36.763Z,46.53
2019-03-01T07:15:07.159Z,49.00
2019-03-01T07:17:34.720Z,45.53
2019-03-01T07:20:03.677Z,47.73
2019-03-01T07:22:31.763Z,50.60
2019-03-01T07:24:59.840Z,46.60
2019-03-01T07:27:27.983Z,44.53
2019-03-01T07:29:56.052Z,45.03
2019-03-01T07:32:24.181Z,47.97
2019-03-01T07:34:52.489Z,46.17
2019-03-01T07:37:21.954Z,49.27
2019-03-01T07:39:50.023Z,49.97
2019-03-01T07:42:18.160Z,49.87
2019-03-01T07:44:46.466Z,45.60
2019-03-01T07:47:15.032Z,44.97
2019-03-01T07:49:43.214Z,41.83
2019-03-01T07:52:11.319Z,42.43
2019-03-01T07:54:39.434Z,41.33
2019-03-01T07:57:07.571Z,40.10
2019-03-01T07:59:38.254Z,38.83
2019-03-01T08:02:05.557Z,36.57
2019-03-01T08:04:33.683Z,36.90
2019-03-01T08:07:02.200Z,35.27
2019-03-01T08:09:30.373Z,35.17
2019-03-01T08:11:58.481Z,31.83
2019-03-01T08:14:27.996Z,31.47
2019-03-01T08:16:56.817Z,29.93
2019-03-01T08:19:24.954Z,28.00
2019-03-01T08:21:53.071Z,26.53
2019-03-01T08:24:21.187Z,24.73
2019-03-01T08:26:49.472Z,23.73
2019-03-01T08:29:17.544Z,20.43
2019-03-01T08:31:45.812Z,20.50
2019-03-01T08:34:14.504Z,21.47
2019-03-01T08:36:43.753Z,20.80
2019-03-01T08:39:11.828Z,19.50
2019-03-01T08:41:39.900Z,18.80
2019-03-01T08:44:07.994Z,18.73
2019-03-01T08:46:36.110Z,18.50
2019-03-01T08:49:06.593Z,18.70
2019-03-01T08:51:33.944Z,19.20
2019-03-01T08:54:02.122Z,18.87
2019-03-01T08:56:30.295Z,18.27
2019-03-01T08:58:58.415Z,18.13
2019-03-01T09:01:26.480Z,17.77
2019-03-01T09:03:56.565Z,16.47
2019-03-01T09:06:24.671Z,16.20
2019-03-01T09:08:52.790Z,15.20
2019-03-01T09:11:20.976Z,16.73
2019-03-01T09:13:49.068Z,16.30
2019-03-01T09:16:17.161Z,14.10
2019-03-01T09:18:46.608Z,12.80
2019-03-01T09:21:15.008Z,13.23
2019-03-01T09:23:43.148Z,12.10
2019-03-01T09:26:11.365Z,11.73
2019-03-01T09:28:39.859Z,14.03
2019-03-01T09:31:08.019Z,13.43
2019-03-01T09:33:36.359Z,13.40
2019-03-01T09:36:21.511Z,13.30
2019-03-01T09:38:49.598Z,11.73
2019-03-01T09:41:17.670Z,10.90
2019-03-01T09:43:45.748Z,9.90
2019-03-01T09:46:13.868Z,9.17
2019-03-01T09:48:41.985Z,8.63
2019-03-01T09:51:10.675Z,8.93
2019-03-01T09:53:39.668Z,7.97
2019-03-01T09:56:09.660Z,8.90
2019-03-01T09:58:37.795Z,9.90
2019-03-01T10:01:07.618Z,9.80
2019-03-01T10:03:35.707Z,11.20
2019-03-01T10:06:03.815Z,12.43
2019-03-01T10:08:31.926Z,13.43
2019-03-01T10:11:00.277Z,14.47
2019-03-01T10:13:30.314Z,14.60
2019-03-01T10:15:58.193Z,16.43
2019-03-01T10:18:26.280Z,17.43
2019-03-01T10:20:54.372Z,17.13
2019-03-01T10:23:22.456Z,18.80
2019-03-01T10:25:50.562Z,17.40
2019-03-01T10:28:18.627Z,16.93
2019-03-01T10:30:46.749Z,19.37
2019-03-01T10:33:14.870Z,17.93
2019-03-01T10:35:43.085Z,17.70
2019-03-01T10:38:11.185Z,17.23
2019-03-01T10:40:39.656Z,17.67
2019-03-01T10:43:07.731Z,17.77
2019-03-01T10:45:35.824Z,17.60
2019-03-01T10:48:04.032Z,15.70
2019-03-01T10:50:32.155Z,12.53
2019-03-01T10:53:00.357Z,13.47
2019-03-01T10:55:28.499Z,11.50
2019-03-01T10:57:56.611Z,11.67
2019-03-01T11:00:25.625Z,10.83
2019-03-01T11:02:53.693Z,11.43
2019-03-01T11:05:21.918Z,11.43
2019-03-01T11:07:50.625Z,12.97
2019-03-01T11:10:20.085Z,14.20
2019-03-01T11:12:48.144Z,14.40
2019-03-01T11:15:16.323Z,14.37
2019-03-01T11:17:44.408Z,13.30
2019-03-01T11:20:15.878Z,13.37
2019-03-01T11:22:44.254Z,14.60
2019-03-01T11:25:13.041Z,13.87
2019-03-01T11:27:41.147Z,12.67
2019-03-01T11:30:15.345Z,12.93
2019-03-01T11:32:43.781Z,11.17
2019-03-01T11:35:12.183Z,10.87
2019-03-01T11:37:40.311Z,11.00
2019-03-01T11:40:09.568Z,11.90
2019-03-01T11:42:37.675Z,10.57
2019-03-01T11:45:06.346Z,10.10
2019-03-01T11:47:34.379Z,11.23
2019-03-01T11:50:02.481Z,10.23
2019-03-01T11:52:30.566Z,9.90
2019-03-01T11:54:58.646Z,9.47
2019-03-01T11:57:26.951Z,9.43
2019-03-01T11:59:55.084Z,7.53
2019-03-01T12:02:23.170Z,7.63
2019-03-01T12:04:51.308Z,7.40
2019-03-01T12:07:19.404Z,8.17
2019-03-01T12:09:47.485Z,7.77
2019-03-01T12:12:15.613Z,7.43
2019-03-01T12:14:43.727Z,7.73
2019-03-01T12:17:11.803Z,7.83
2019-03-01T12:19:39.887Z,7.90
2019-03-01T12:22:16.761Z,8.20
2019-03-01T12:24:37.708Z,8.70
2019-03-01T12:27:05.778Z,8.30
2019-03-01T12:29:33.896Z,7.80
2019-03-01T12:32:01.981Z,6.63
2019-03-01T12:34:30.101Z,7.33
2019-03-01T12:36:58.252Z,7.10
2019-03-01T12:39:26.328Z,5.77
2019-03-01T12:41:54.546Z,5.70
2019-03-01T12:44:22.621Z,5.63
2019-03-01T12:46:50.720Z,4.97
2019-03-01T12:49:18.854Z,4.80
2019-03-01T12:51:46.946Z,5.20
2019-03-01T12:54:15.131Z,6.10
2019-03-01T12:56:43.195Z,6.63
2019-03-01T12:59:11.320Z,4.43
2019-03-01T13:01:39.420Z,5.27
2019-03-01T13:04:07.928Z,6.60
2019-03-01T13:06:38.988Z,6.07
2019-03-01T13:09:11.905Z,5.10
2019-03-01T13:11:40.050Z,4.30
2019-03-01T13:14:08.162Z,4.27
2019-03-01T13:16:36.247Z,4.57
2019-03-01T13:19:04.361Z,4.03
2019-03-01T13:21:32.537Z,4.13
2019-03-01T13:24:01.391Z,3.50
2019-03-01T13:26:29.532Z,4.10
2019-03-01T13:28:57.609Z,3.80
2019-03-01T13:31:25.721Z,3.00
2019-03-01T13:33:53.844Z,3.10
2019-03-01T13:36:21.985Z,4.00
2019-03-01T13:38:50.108Z,3.57
2019-03-01T13:41:18.269Z,3.37
2019-03-01T13:43:46.395Z,3.20
2019-03-01T13:46:14.671Z,3.37
2019-03-01T13:48:42.789Z,4.13
2019-03-01T13:51:13.967Z,3.47
2019-03-01T13:53:48.753Z,4.30
2019-03-01T13:56:10.808Z,7.40
2019-03-01T13:58:38.892Z,3.63
2019-03-01T14:01:09.011Z,3.60
2019-03-01T14:03:37.101Z,2.87
2019-03-01T14:06:05.220Z,3.33
2019-03-01T14:08:33.301Z,3.23
2019-03-01T14:11:02.121Z,3.60
2019-03-01T14:13:30.307Z,3.50
2019-03-01T14:15:58.428Z,3.47
2019-03-01T14:18:27.467Z,5.37
2019-03-01T14:20:57.968Z,4.40
2019-03-01T14:23:25.989Z,4.10
2019-03-01T14:25:54.697Z,4.70
2019-03-01T14:28:22.807Z,2.80
2019-03-01T14:30:56.482Z,3.80
2019-03-01T14:33:24.657Z,3.57
2019-03-01T14:35:52.877Z,2.93
2019-03-01T14:38:21.061Z,4.17
2019-03-01T14:40:49.829Z,3.80
2019-03-01T14:43:20.288Z,2.60
2019-03-01T14:45:47.809Z,2.80
2019-03-01T14:48:15.985Z,2.20
2019-03-01T14:50:44.110Z,2.90
2019-03-01T14:53:12.219Z,2.50
2019-03-01T14:55:42.137Z,2.40
2019-03-01T14:58:18.990Z,2.60
2019-03-01T15:01:02.565Z,2.47
2019-03-01T15:03:32.560Z,3.13
2019-03-01T15:06:00.647Z,8.83
2019-03-01T15:08:30.156Z,3.23
2019-03-01T15:10:59.237Z,3.20
2019-03-01T15:13:27.939Z,2.53
2019-03-01T15:15:56.397Z,2.87
2019-03-01T15:18:25.084Z,3.03
2019-03-01T15:20:55.841Z,2.97
2019-03-01T15:23:24.084Z,3.23
2019-03-01T15:25:52.917Z,3.37
2019-03-01T15:28:21.982Z,3.40
2019-03-01T15:30:50.088Z,3.40
2019-03-01T15:33:19.111Z,3.20
2019-03-01T15:35:47.236Z,2.37
2019-03-01T15:38:15.350Z,2.70
2019-03-01T15:40:43.458Z,2.57
2019-03-01T15:43:11.587Z,2.20
2019-03-01T15:45:40.457Z,2.70
2019-03-01T15:48:08.891Z,2.53
2019-03-01T15:50:37.098Z,2.83
2019-03-01T15:53:05.206Z,3.00
2019-03-01T15:55:33.373Z,2.53
2019-03-01T15:58:01.488Z,3.40
2019-03-01T16:00:30.547Z,2.93
2019-03-01T16:02:58.753Z,2.90
2019-03-01T16:05:27.054Z,3.50
2019-03-01T16:07:55.164Z,2.77
2019-03-01T16:10:23.244Z,3.30
2019-03-01T16:12:51.402Z,2.53
2019-03-01T16:15:19.530Z,3.30
2019-03-01T16:17:47.604Z,2.67
2019-03-01T16:20:16.316Z,2.77
2019-03-01T16:22:44.455Z,3.40
2019-03-01T16:25:12.940Z,3.07
2019-03-01T16:27:41.245Z,2.93
2019-03-01T16:30:11.253Z,3.13
2019-03-01T16:32:40.832Z,2.97
2019-03-01T16:35:09.677Z,2.97
2019-03-01T16:37:38.076Z,3.10
2019-03-01T16:40:07.509Z,2.80
2019-03-01T16:42:38.548Z,3.70
2019-03-01T16:45:05.975Z,2.60
2019-03-01T16:47:34.081Z,2.80
2019-03-01T16:50:02.918Z,3.33
2019-03-01T16:52:31.970Z,3.17
2019-03-01T16:55:00.301Z,3.03
2019-03-01T16:57:31.137Z,3.30
2019-03-01T16:59:59.296Z,2.93
2019-03-01T17:02:27.610Z,2.93
2019-03-01T17:04:55.686Z,3.90
2019-03-01T17:07:25.126Z,3.50
2019-03-01T17:09:55.001Z,3.70
2019-03-01T17:12:23.191Z,3.03
2019-03-01T17:14:51.293Z,3.40
2019-03-01T17:17:19.490Z,3.20
2019-03-01T17:19:48.016Z,3.53
2019-03-01T17:22:16.176Z,4.20
2019-03-01T17:24:44.270Z,2.87
2019-03-01T17:27:12.709Z,3.47
2019-03-01T17:29:40.793Z,3.30
2019-03-01T17:32:08.884Z,3.30
2019-03-01T17:34:37.012Z,3.77
2019-03-01T17:37:05.510Z,3.37
2019-03-01T17:39:33.697Z,3.20
2019-03-01T17:42:01.813Z,3.20
2019-03-01T17:44:29.924Z,3.73
2019-03-01T17:46:58.013Z,3.77
2019-03-01T17:49:29.742Z,3.03
2019-03-01T17:51:57.663Z,3.40
2019-03-01T17:54:26.034Z,2.73
2019-03-01T17:56:57.942Z,2.93
2019-03-01T17:59:25.312Z,3.80
2019-03-01T18:01:53.439Z,3.57
2019-03-01T18:04:21.541Z,3.50
2019-03-01T18:06:51.494Z,3.40
2019-03-01T18:09:19.522Z,3.70
2019-03-01T18:11:47.684Z,4.10
2019-03-01T18:14:15.926Z,4.00
2019-03-01T18:16:44.071Z,4.37
2019-03-01T18:19:12.276Z,4.00
2019-03-01T18:21:40.379Z,3.37
2019-03-01T18:24:11.075Z,3.70
2019-03-01T18:26:39.931Z,3.77
2019-03-01T18:29:08.561Z,3.80
2019-03-01T18:31:36.753Z,3.97
2019-03-01T18:34:05.147Z,4.03
2019-03-01T18:36:33.233Z,4.17
2019-03-01T18:39:03.708Z,4.13
2019-03-01T18:41:31.082Z,3.47
2019-03-01T18:43:59.183Z,3.80
2019-03-01T18:46:27.321Z,3.87
2019-03-01T18:48:55.421Z,3.80
2019-03-01T18:51:23.514Z,4.30
2019-03-01T18:53:52.044Z,4.27
2019-03-01T18:56:20.172Z,3.97
2019-03-01T18:58:48.981Z,4.53
2019-03-01T19:01:18.436Z,3.50
2019-03-01T19:03:46.639Z,3.80
2019-03-01T19:06:16.179Z,4.03
2019-03-01T19:08:44.696Z,3.53
2019-03-01T19:11:14.476Z,4.00
2019-03-01T19:13:42.758Z,3.60
2019-03-01T19:16:11.002Z,3.83
2019-03-01T19:18:42.198Z,3.50
2019-03-01T19:21:10.277Z,4.10
2019-03-01T19:23:38.541Z,4.27
2019-03-01T19:26:07.217Z,3.73
2019-03-01T19:28:35.585Z,4.30
2019-03-01T19:31:04.049Z,4.60
2019-03-01T19:33:34.698Z,4.00
2019-03-01T19:36:04.381Z,4.53
2019-03-01T19:38:32.696Z,4.00
2019-03-01T19:41:00.909Z,4.40
2019-03-01T19:43:29.485Z,4.13
2019-03-01T19:45:57.652Z,4.20
2019-03-01T19:48:26.354Z,4.20
2019-03-01T19:50:54.670Z,5.13
2019-03-01T19:53:25.430Z,4.00
2019-03-01T19:55:52.950Z,4.30
2019-03-01T19:58:22.118Z,3.90
2019-03-01T20:00:50.606Z,4.77
2019-03-01T20:03:19.019Z,3.63
2019-03-01T20:05:47.216Z,4.63
2019-03-01T20:08:15.506Z,3.80
2019-03-01T20:10:43.938Z,3.80
2019-03-01T20:13:13.040Z,3.03
2019-03-01T20:15:45.739Z,3.80
2019-03-01T20:18:12.649Z,3.40
2019-03-01T20:20:40.786Z,3.30
2019-03-01T20:23:08.973Z,3.50
2019-03-01T20:25:39.642Z,3.53
2019-03-01T20:28:11.566Z,3.70
2019-03-01T20:30:39.499Z,4.20
2019-03-01T20:33:10.175Z,3.70
2019-03-01T20:35:38.357Z,2.93
2019-03-01T20:38:06.652Z,3.13
2019-03-01T20:40:34.778Z,3.07
2019-03-01T20:43:06.604Z,3.07
2019-03-01T20:45:34.688Z,2.73
2019-03-01T20:48:03.555Z,3.20
2019-03-01T20:50:31.910Z,2.70
2019-03-01T20:53:02.421Z,2.87
2019-03-01T20:55:33.248Z,2.73
2019-03-01T20:58:03.138Z,2.17
2019-03-01T21:00:32.489Z,2.30
2019-03-01T21:03:00.635Z,2.37
2019-03-01T21:05:31.332Z,2.20
2019-03-01T21:07:59.608Z,2.47
2019-03-01T21:10:27.765Z,2.40
2019-03-01T21:12:55.914Z,2.90
2019-03-01T21:15:24.226Z,2.10
2019-03-01T21:17:55.424Z,2.07
2019-03-01T21:20:22.214Z,2.03
2019-03-01T21:22:50.381Z,2.10
2019-03-01T21:25:19.628Z,2.23
2019-03-01T21:27:50.427Z,2.30
2019-03-01T21:30:24.041Z,2.80
2019-03-01T21:32:52.283Z,2.37
2019-03-01T21:35:22.681Z,2.10
2019-03-01T21:37:51.011Z,2.20
2019-03-01T21:40:19.762Z,2.63
2019-03-01T21:42:47.895Z,2.33
2019-03-01T21:45:17.845Z,2.67
2019-03-01T21:47:47.968Z,2.97
2019-03-01T21:50:16.982Z,2.83
2019-03-01T21:52:45.402Z,2.80
2019-03-01T21:55:14.052Z,2.90
2019-03-01T21:57:42.215Z,3.17
2019-03-01T22:00:11.826Z,2.70
2019-03-01T22:02:40.099Z,2.93
2019-03-01T22:05:10.277Z,2.37
2019-03-01T22:07:38.577Z,2.97
2019-03-01T22:10:07.386Z,3.23
2019-03-01T22:12:35.568Z,2.63
2019-03-01T22:15:04.001Z,2.90
2019-03-01T22:17:32.143Z,3.00
2019-03-01T22:20:00.322Z,3.27
2019-03-01T22:22:28.356Z,3.30
2019-03-01T22:24:58.640Z,2.90
2019-03-01T22:27:26.277Z,3.13
2019-03-01T22:29:54.339Z,3.03
2019-03-01T22:32:22.445Z,2.87
2019-03-01T22:34:50.524Z,2.77
2019-03-01T22:37:19.212Z,3.00
2019-03-01T22:39:48.454Z,3.03
2019-03-01T22:42:17.233Z,2.80
2019-03-01T22:44:45.508Z,2.97
2019-03-01T22:47:13.892Z,3.10
2019-03-01T22:49:42.011Z,2.70
2019-03-01T22:52:10.087Z,3.03
2019-03-01T22:54:38.201Z,2.73
2019-03-01T22:57:06.330Z,2.60
2019-03-01T22:59:35.524Z,2.70
2019-03-01T23:02:08.186Z,2.73
2019-03-01T23:04:35.676Z,2.90
2019-03-01T23:07:03.801Z,2.80
2019-03-01T23:09:32.382Z,3.10
2019-03-01T23:12:00.576Z,3.00
2019-03-01T23:14:30.773Z,2.93
2019-03-01T23:16:58.406Z,3.40
2019-03-01T23:19:26.533Z,3.57
2019-03-01T23:21:54.604Z,3.63
2019-03-01T23:24:22.696Z,3.43
2019-03-01T23:26:53.625Z,4.30
2019-03-01T23:29:20.521Z,4.07
2019-03-01T23:31:48.809Z,4.03
2019-03-01T23:34:17.012Z,4.10
2019-03-01T23:36:45.195Z,3.97
2019-03-01T23:39:13.255Z,4.10
2019-03-01T23:41:43.527Z,3.90
2019-03-01T23:44:11.113Z,4.17
2019-03-01T23:46:39.176Z,4.30
2019-03-01T23:49:07.300Z,3.57
2019-03-01T23:51:35.397Z,4.30
2019-03-01T23:54:05.691Z,4.20
2019-03-01T23:56:34.965Z,4.07
2019-03-01T23:59:03.108Z,3.73
